createdAt,value
2023-02-19T00:01:12.712Z,97215.25
2023-02-19T00:03:39.751Z,97225.06
2023-02-19T00:06:08.627Z,97236.75
2023-02-19T00:08:36.467Z,97219.69
2023-02-19T00:11:05.089Z,97222.38
2023-02-19T00:13:31.692Z,97227.09
2023-02-19T00:15:58.223Z,97214.91
2023-02-19T00:18:24.732Z,97210.84
2023-02-19T00:20:51.305Z,97222.25
2023-02-19T00:23:17.784Z,97224.91
2023-02-19T00:25:44.200Z,97228.00
2023-02-19T00:28:10.622Z,97230.31
2023-02-19T00:30:37.088Z,97229.19
2023-02-19T00:33:03.670Z,97228.75
2023-02-19T00:35:30.137Z,97231.00
2023-02-19T00:37:56.538Z,97232.59
2023-02-19T00:40:25.924Z,97236.88
2023-02-19T00:42:53.000Z,97236.00
2023-02-19T00:45:19.478Z,97242.28
2023-02-19T00:47:46.017Z,97238.66
2023-02-19T00:50:12.526Z,97227.19
2023-02-19T00:52:39.010Z,97234.91
2023-02-19T00:55:05.861Z,97226.81
2023-02-19T00:57:32.278Z,97229.19
2023-02-19T00:59:58.696Z,97232.03
2023-02-19T01:02:26.839Z,97228.47
2023-02-19T01:04:54.242Z,97233.31
2023-02-19T01:07:20.686Z,97232.94
2023-02-19T01:09:47.144Z,97233.44
2023-02-19T01:12:13.632Z,97233.75
2023-02-19T01:14:40.063Z,97220.88
2023-02-19T01:17:06.611Z,97220.47
2023-02-19T01:19:33.030Z,97221.84
2023-02-19T01:21:59.457Z,97215.19
2023-02-19T01:24:27.248Z,97226.56
2023-02-19T01:26:54.388Z,97225.47
2023-02-19T01:29:20.778Z,97209.22
2023-02-19T01:31:47.292Z,97208.53
2023-02-19T01:34:13.728Z,97204.59
2023-02-19T01:36:40.908Z,97203.66
2023-02-19T01:39:07.523Z,97199.63
2023-02-19T01:41:39.456Z,97204.13
2023-02-19T01:44:12.229Z,97215.91
2023-02-19T01:46:40.536Z,97203.00
2023-02-19T01:49:09.579Z,97196.41
2023-02-19T01:51:39.609Z,97196.75
2023-02-19T01:54:09.624Z,97201.09
2023-02-19T01:56:40.393Z,97191.44
2023-02-19T01:59:07.420Z,97207.94
2023-02-19T02:01:34.247Z,97197.84
2023-02-19T02:04:01.005Z,97185.88
2023-02-19T02:06:31.633Z,97203.56
2023-02-19T02:09:18.129Z,97191.03
2023-02-19T02:11:48.933Z,97194.38
2023-02-19T02:14:18.275Z,97190.94
2023-02-19T02:16:57.497Z,97189.78
2023-02-19T02:19:32.075Z,97178.78
2023-02-19T02:22:07.822Z,97173.09
2023-02-19T02:24:59.087Z,97194.16
2023-02-19T02:27:43.737Z,97161.44
2023-02-19T02:30:41.559Z,97173.16
2023-02-19T02:33:28.690Z,97165.50
2023-02-19T02:35:57.912Z,97171.53
2023-02-19T02:38:29.174Z,97169.69
2023-02-19T02:40:56.738Z,97162.19
2023-02-19T02:43:24.252Z,97170.50
2023-02-19T02:45:50.807Z,97163.31
2023-02-19T02:48:17.571Z,97169.53
2023-02-19T02:50:49.545Z,97159.81
2023-02-19T02:53:40.547Z,97152.59
2023-02-19T02:56:09.517Z,97142.63
2023-02-19T02:58:36.213Z,97165.72
2023-02-19T03:01:28.603Z,97159.69
2023-02-19T03:04:01.538Z,97137.38
2023-02-19T03:06:31.373Z,97123.25
2023-02-19T03:09:01.082Z,97142.88
2023-02-19T03:11:49.624Z,97152.31
2023-02-19T03:14:36.488Z,97136.91
2023-02-19T03:17:29.132Z,97135.78
2023-02-19T03:19:58.764Z,97142.84
2023-02-19T03:22:36.524Z,97128.16
2023-02-19T03:25:43.987Z,97120.22
2023-02-19T03:28:13.863Z,97119.19
2023-02-19T03:30:49.314Z,97113.00
2023-02-19T03:33:18.868Z,97108.25
2023-02-19T03:36:07.023Z,97098.78
2023-02-19T03:38:45.860Z,97109.97
2023-02-19T03:41:27.578Z,97101.13
2023-02-19T03:44:12.404Z,97092.53
2023-02-19T03:46:38.832Z,97098.56
2023-02-19T03:49:15.722Z,97098.31
2023-02-19T03:51:45.840Z,97098.03
2023-02-19T03:54:18.442Z,97090.22
2023-02-19T03:56:55.188Z,97086.72
2023-02-19T03:59:48.876Z,97084.91
2023-02-19T04:02:29.571Z,97105.44
2023-02-19T04:05:14.116Z,97125.41
2023-02-19T04:07:45.258Z,97129.34
2023-02-19T04:10:13.246Z,97121.34
2023-02-19T04:15:10.131Z,97132.28
2023-02-19T04:17:42.113Z,97134.31
2023-02-19T04:20:11.411Z,97141.72
2023-02-19T04:22:39.062Z,97159.50
2023-02-19T04:25:06.330Z,97162.03
2023-02-19T04:27:37.839Z,97142.84
2023-02-19T04:30:06.235Z,97142.84
2023-02-19T04:32:32.777Z,97142.91
2023-02-19T04:34:59.216Z,97155.34
2023-02-19T04:37:25.678Z,97149.91
2023-02-19T04:39:52.138Z,97160.91
2023-02-19T04:42:18.985Z,97164.22
2023-02-19T04:44:45.520Z,97181.97
2023-02-19T04:47:11.916Z,97182.09
2023-02-19T04:49:38.301Z,97189.50
2023-02-19T04:52:04.843Z,97190.59
2023-02-19T04:54:31.253Z,97188.19
2023-02-19T04:56:57.761Z,97196.91
2023-02-19T04:59:24.154Z,97192.53
2023-02-19T05:01:50.721Z,97175.16
2023-02-19T05:04:17.193Z,97175.50
2023-02-19T05:06:43.698Z,97191.09
2023-02-19T05:09:10.218Z,97165.13
2023-02-19T05:11:36.650Z,97170.28
2023-02-19T05:14:03.444Z,97150.78
2023-02-19T05:16:29.918Z,97143.19
2023-02-19T05:18:56.398Z,97134.19
2023-02-19T05:21:22.825Z,97124.28
2023-02-19T05:23:49.270Z,97127.00
2023-02-19T05:26:18.444Z,97121.19
2023-02-19T05:28:46.149Z,97110.94
2023-02-19T05:31:14.129Z,97105.25
2023-02-19T05:33:42.975Z,97110.25
2023-02-19T05:36:12.666Z,97094.50
2023-02-19T05:38:40.443Z,97106.59
2023-02-19T05:41:11.719Z,97107.31
2023-02-19T05:43:39.661Z,97108.47
2023-02-19T05:46:07.292Z,97123.31
2023-02-19T05:48:33.931Z,97130.09
2023-02-19T05:51:05.167Z,97119.00
2023-02-19T05:53:32.211Z,97124.09
2023-02-19T05:55:58.736Z,97131.44
2023-02-19T05:58:25.688Z,97136.47
2023-02-19T06:00:52.467Z,97135.53
2023-02-19T06:03:19.199Z,97148.63
2023-02-19T06:05:45.600Z,97156.28
2023-02-19T06:08:13.740Z,97173.75
2023-02-19T06:10:41.323Z,97186.28
2023-02-19T06:13:09.290Z,97197.72
2023-02-19T06:15:38.642Z,97206.81
2023-02-19T06:18:05.182Z,97193.56
2023-02-19T06:20:32.875Z,97187.47
2023-02-19T06:22:59.284Z,97209.72
2023-02-19T06:25:25.800Z,97224.66
2023-02-19T06:27:52.277Z,97211.06
2023-02-19T06:30:18.874Z,97214.47
2023-02-19T06:32:45.412Z,97208.97
2023-02-19T06:35:11.862Z,97208.78
2023-02-19T06:37:38.384Z,97214.44
2023-02-19T06:40:05.123Z,97202.47
2023-02-19T06:42:32.822Z,97221.09
2023-02-19T06:44:59.239Z,97214.56
2023-02-19T06:47:25.724Z,97219.47
2023-02-19T06:49:52.161Z,97225.38
2023-02-19T06:52:18.577Z,97242.53
2023-02-19T06:54:45.065Z,97248.66
2023-02-19T06:57:11.475Z,97254.06
2023-02-19T06:59:37.919Z,97258.78
2023-02-19T07:02:04.547Z,97261.09
2023-02-19T07:04:30.998Z,97250.91
2023-02-19T07:06:57.505Z,97266.25
2023-02-19T07:09:25.393Z,97278.66
2023-02-19T07:11:52.349Z,97269.81
2023-02-19T07:14:19.029Z,97271.19
2023-02-19T07:16:47.386Z,97274.94
2023-02-19T07:19:15.051Z,97268.09
2023-02-19T07:21:42.533Z,97275.56
2023-02-19T07:24:10.120Z,97263.63
2023-02-19T07:26:36.542Z,97269.81
2023-02-19T07:29:03.876Z,97290.72
2023-02-19T07:31:30.387Z,97300.19
2023-02-19T07:33:56.876Z,97296.97
2023-02-19T07:36:24.316Z,97302.31
2023-02-19T07:38:58.246Z,97300.69
2023-02-19T07:41:26.775Z,97308.94
2023-02-19T07:43:55.036Z,97307.91
2023-02-19T07:46:22.282Z,97325.50
2023-02-19T07:48:48.848Z,97341.69
2023-02-19T07:51:18.966Z,97344.72
2023-02-19T07:53:46.578Z,97332.00
2023-02-19T07:56:13.537Z,97323.16
2023-02-19T07:58:40.583Z,97337.84
2023-02-19T08:01:14.463Z,97333.69
2023-02-19T08:03:41.126Z,97336.34
2023-02-19T08:06:08.519Z,97350.19
2023-02-19T08:08:35.012Z,97354.66
2023-02-19T08:11:21.644Z,97354.81
2023-02-19T08:13:50.131Z,97361.69
2023-02-19T08:16:26.888Z,97359.66
2023-02-19T08:19:00.142Z,97361.38
2023-02-19T08:21:26.625Z,97367.53
2023-02-19T08:23:53.130Z,97356.69
2023-02-19T08:26:19.646Z,97358.72
2023-02-19T08:28:46.299Z,97361.78
2023-02-19T08:31:13.144Z,97359.28
2023-02-19T08:33:40.030Z,97356.56
2023-02-19T08:36:08.502Z,97360.31
2023-02-19T08:38:36.428Z,97356.47
2023-02-19T08:41:08.175Z,97345.47
2023-02-19T08:43:35.181Z,97343.13
2023-02-19T08:46:02.129Z,97345.28
2023-02-19T08:48:28.939Z,97338.25
2023-02-19T08:50:57.226Z,97348.03
2023-02-19T08:53:24.939Z,97351.81
2023-02-19T08:55:52.674Z,97344.69
2023-02-19T08:58:28.985Z,97340.06
2023-02-19T09:00:55.495Z,97338.41
2023-02-19T09:03:21.940Z,97347.09
2023-02-19T09:05:48.341Z,97356.00
2023-02-19T09:08:15.776Z,97345.13
2023-02-19T09:10:42.276Z,97346.22
2023-02-19T09:13:08.826Z,97338.22
2023-02-19T09:15:35.255Z,97334.50
2023-02-19T09:18:02.181Z,97342.88
2023-02-19T09:20:28.564Z,97335.94
2023-02-19T09:22:59.588Z,97334.19
2023-02-19T09:25:26.120Z,97344.44
2023-02-19T09:27:56.775Z,97334.91
2023-02-19T09:30:27.040Z,97327.75
2023-02-19T09:32:54.283Z,97321.09
2023-02-19T09:35:20.782Z,97327.50
2023-02-19T09:37:47.197Z,97316.19
2023-02-19T09:40:14.080Z,97318.00
2023-02-19T09:42:43.089Z,97320.50
2023-02-19T09:45:17.655Z,97321.13
2023-02-19T09:47:44.214Z,97315.50
2023-02-19T09:50:16.875Z,97320.38
2023-02-19T09:52:50.595Z,97315.78
2023-02-19T09:55:34.420Z,97309.84
2023-02-19T09:58:34.702Z,97319.16
2023-02-19T10:01:04.389Z,97317.84
2023-02-19T10:03:35.380Z,97323.53
2023-02-19T10:06:06.246Z,97320.63
2023-02-19T10:08:35.439Z,97309.28
2023-02-19T10:11:05.215Z,97304.56
2023-02-19T10:13:37.536Z,97305.81
2023-02-19T10:16:07.008Z,97302.75
2023-02-19T10:18:41.268Z,97305.56
2023-02-19T10:21:10.779Z,97298.66
2023-02-19T10:23:39.024Z,97298.97
2023-02-19T10:26:05.428Z,97298.19
2023-02-19T10:28:34.553Z,97299.25
2023-02-19T10:31:03.602Z,97285.94
2023-02-19T10:33:30.414Z,97293.91
2023-02-19T10:36:07.459Z,97288.16
2023-02-19T10:38:38.650Z,97297.59
2023-02-19T10:41:14.597Z,97296.69
2023-02-19T10:43:45.783Z,97301.91
2023-02-19T10:46:18.816Z,97300.00
2023-02-19T10:48:51.876Z,97299.06
2023-02-19T10:51:21.805Z,97290.72
2023-02-19T10:53:50.762Z,97298.41
2023-02-19T10:56:26.436Z,97293.00
2023-02-19T10:58:53.637Z,97286.97
2023-02-19T11:01:22.518Z,97286.13
2023-02-19T11:03:51.777Z,97282.94
2023-02-19T11:06:21.404Z,97281.66
2023-02-19T11:08:52.280Z,97276.72
2023-02-19T11:11:28.482Z,97270.31
2023-02-19T11:13:57.552Z,97267.31
2023-02-19T11:16:37.441Z,97255.81
2023-02-19T11:19:03.899Z,97249.91
2023-02-19T11:21:33.500Z,97237.00
2023-02-19T11:24:03.679Z,97238.28
2023-02-19T11:26:38.181Z,97241.53
2023-02-19T11:29:23.128Z,97224.78
2023-02-19T11:31:49.621Z,97231.78
2023-02-19T11:34:21.231Z,97224.91
2023-02-19T11:37:07.768Z,97215.44
2023-02-19T11:39:34.684Z,97211.50
2023-02-19T11:42:27.171Z,97197.38
2023-02-19T11:45:08.697Z,97184.16
2023-02-19T11:48:00.436Z,97189.00
2023-02-19T11:51:05.850Z,97177.94
2023-02-19T11:53:42.348Z,97175.78
2023-02-19T11:56:14.667Z,97157.81
2023-02-19T11:58:55.562Z,97155.47
2023-02-19T12:02:12.612Z,97151.63
2023-02-19T12:05:16.183Z,97154.72
2023-02-19T12:07:57.748Z,97147.78
2023-02-19T12:10:34.459Z,97145.31
2023-02-19T12:13:48.925Z,97142.25
2023-02-19T12:16:27.057Z,97130.50
2023-02-19T12:18:59.624Z,97124.03
2023-02-19T12:21:55.347Z,97128.94
2023-02-19T12:24:48.329Z,97122.78
2023-02-19T12:27:26.945Z,97129.59
2023-02-19T12:30:18.004Z,97126.06
2023-02-19T12:32:55.137Z,97127.47
2023-02-19T12:35:27.293Z,97128.19
2023-02-19T12:38:15.185Z,97120.03
2023-02-19T12:41:13.059Z,97133.09
2023-02-19T12:43:53.971Z,97134.16
2023-02-19T12:46:35.220Z,97128.44
2023-02-19T12:49:04.409Z,97128.94
2023-02-19T12:51:55.133Z,97136.88
2023-02-19T12:54:25.320Z,97151.63
2023-02-19T12:57:06.226Z,97132.94
2023-02-19T12:59:42.350Z,97140.97
2023-02-19T13:02:20.841Z,97142.19
2023-02-19T13:04:50.294Z,97137.47
2023-02-19T13:07:19.791Z,97156.50
2023-02-19T13:09:55.462Z,97147.47
2023-02-19T13:12:36.766Z,97150.16
2023-02-19T13:15:18.797Z,97148.22
2023-02-19T13:17:50.551Z,97152.72
2023-02-19T13:20:25.983Z,97152.78
2023-02-19T13:23:14.468Z,97166.34
2023-02-19T13:26:08.312Z,97155.63
2023-02-19T13:29:00.275Z,97163.03
2023-02-19T13:32:02.004Z,97170.09
2023-02-19T13:34:49.074Z,97172.00
2023-02-19T13:37:16.703Z,97180.38
2023-02-19T13:39:52.090Z,97184.31
2023-02-19T13:42:34.712Z,97197.75
2023-02-19T13:45:03.940Z,97199.78
2023-02-19T13:47:56.155Z,97195.63
2023-02-19T13:50:32.859Z,97195.19
2023-02-19T13:53:01.348Z,97205.16
2023-02-19T13:55:43.166Z,97200.88
2023-02-19T13:59:11.484Z,97205.84
2023-02-19T14:01:51.453Z,97189.34
2023-02-19T14:04:47.629Z,97195.25
2023-02-19T14:07:14.055Z,97205.91
2023-02-19T14:09:40.572Z,97204.34
2023-02-19T14:12:30.324Z,97188.69
2023-02-19T14:14:57.241Z,97182.09
2023-02-19T14:17:46.325Z,97186.56
2023-02-19T14:20:17.008Z,97167.75
2023-02-19T14:22:46.472Z,97176.56
2023-02-19T14:25:29.151Z,97177.84
2023-02-19T14:28:11.504Z,97188.97
2023-02-19T14:30:48.618Z,97193.47
2023-02-19T14:33:18.440Z,97186.94
2023-02-19T14:35:47.782Z,97190.22
2023-02-19T14:38:22.135Z,97191.94
2023-02-19T14:40:49.818Z,97199.19
2023-02-19T14:43:19.496Z,97197.91
2023-02-19T14:45:50.440Z,97192.94
2023-02-19T14:48:23.015Z,97188.94
2023-02-19T14:50:52.798Z,97187.47
2023-02-19T14:53:22.294Z,97175.72
2023-02-19T14:55:50.172Z,97172.56
2023-02-19T14:58:25.744Z,97178.75
2023-02-19T15:00:52.324Z,97176.13
2023-02-19T15:03:34.284Z,97170.03
2023-02-19T15:06:15.561Z,97170.88
2023-02-19T15:08:52.005Z,97184.25
2023-02-19T15:11:25.040Z,97178.34
2023-02-19T15:13:58.344Z,97173.75
2023-02-19T15:16:26.787Z,97186.97
2023-02-19T15:18:55.069Z,97185.25
2023-02-19T15:21:30.473Z,97174.34
2023-02-19T15:23:59.497Z,97183.53
2023-02-19T15:26:35.808Z,97189.28
2023-02-19T15:29:11.402Z,97189.06
2023-02-19T15:31:45.414Z,97189.47
2023-02-19T15:34:16.891Z,97184.19
2023-02-19T15:36:43.472Z,97191.50
2023-02-19T15:39:30.697Z,97195.38
2023-02-19T15:42:00.673Z,97202.88
2023-02-19T15:44:27.368Z,97209.34
2023-02-19T15:46:55.233Z,97209.69
2023-02-19T15:49:31.059Z,97214.28
2023-02-19T15:52:04.834Z,97223.88
2023-02-19T15:54:36.165Z,97222.63
2023-02-19T15:57:09.561Z,97236.53
2023-02-19T15:59:39.286Z,97239.78
2023-02-19T16:02:11.888Z,97246.56
2023-02-19T16:04:39.275Z,97250.00
2023-02-19T16:07:06.129Z,97256.84
2023-02-19T16:09:32.730Z,97266.28
2023-02-19T16:12:00.842Z,97274.88
2023-02-19T16:14:36.277Z,97300.22
2023-02-19T16:17:11.625Z,97301.66
2023-02-19T16:19:55.081Z,97300.13
2023-02-19T16:22:24.910Z,97312.59
2023-02-19T16:24:55.213Z,97323.78
2023-02-19T16:27:41.281Z,97318.28
2023-02-19T16:30:09.866Z,97326.81
2023-02-19T16:32:36.197Z,97322.78
2023-02-19T16:35:02.851Z,97325.81
2023-02-19T16:37:41.149Z,97333.72
2023-02-19T16:40:07.579Z,97330.88
2023-02-19T16:42:37.991Z,97329.16
2023-02-19T16:45:08.247Z,97331.69
2023-02-19T16:47:37.952Z,97334.22
2023-02-19T16:50:30.628Z,97336.47
2023-02-19T16:52:59.983Z,97351.47
2023-02-19T16:55:27.552Z,97356.16
2023-02-19T16:57:56.032Z,97370.16
2023-02-19T17:00:25.815Z,97370.34
2023-02-19T17:02:55.275Z,97382.94
2023-02-19T17:05:22.831Z,97391.63
2023-02-19T17:07:49.851Z,97380.75
2023-02-19T17:10:25.708Z,97374.44
2023-02-19T17:12:54.647Z,97379.81
2023-02-19T17:15:22.089Z,97380.63
2023-02-19T17:17:49.062Z,97387.03
2023-02-19T17:20:15.384Z,97388.44
2023-02-19T17:22:42.042Z,97389.78
2023-02-19T17:25:08.566Z,97396.38
2023-02-19T17:27:35.178Z,97405.28
2023-02-19T17:30:01.940Z,97409.47
2023-02-19T17:32:28.523Z,97409.38
2023-02-19T17:34:55.495Z,97419.53
2023-02-19T17:37:21.870Z,97420.63
2023-02-19T17:39:49.180Z,97421.44
2023-02-19T17:42:15.645Z,97425.00
2023-02-19T17:44:42.070Z,97420.16
2023-02-19T17:47:13.225Z,97428.06
2023-02-19T17:49:40.009Z,97436.28
2023-02-19T17:52:06.732Z,97424.03
2023-02-19T17:54:34.310Z,97434.81
2023-02-19T17:57:01.135Z,97427.63
2023-02-19T17:59:27.591Z,97420.31
2023-02-19T18:01:54.295Z,97422.59
2023-02-19T18:04:32.715Z,97423.84
2023-02-19T18:06:59.984Z,97422.06
2023-02-19T18:09:27.928Z,97428.13
2023-02-19T18:11:55.224Z,97427.19
2023-02-19T18:14:21.874Z,97424.75
2023-02-19T18:16:50.395Z,97433.25
2023-02-19T18:19:17.436Z,97426.75
2023-02-19T18:21:44.091Z,97429.94
2023-02-19T18:24:10.548Z,97436.72
2023-02-19T18:26:36.984Z,97441.75
2023-02-19T18:29:05.534Z,97437.75
2023-02-19T18:31:42.075Z,97437.94
2023-02-19T18:34:16.722Z,97425.06
2023-02-19T18:36:47.509Z,97433.09
2023-02-19T18:39:14.069Z,97427.94
2023-02-19T18:41:40.627Z,97424.13
2023-02-19T18:44:07.424Z,97425.78
2023-02-19T18:46:33.891Z,97426.75
2023-02-19T18:49:00.362Z,97427.47
2023-02-19T18:51:26.910Z,97426.56
2023-02-19T18:53:54.103Z,97424.53
2023-02-19T18:56:20.639Z,97438.13
2023-02-19T18:58:49.240Z,97439.31
2023-02-19T19:01:16.909Z,97438.91
2023-02-19T19:03:43.446Z,97437.22
2023-02-19T19:06:09.824Z,97441.91
2023-02-19T19:08:36.254Z,97444.13
2023-02-19T19:11:02.704Z,97444.72
2023-02-19T19:13:29.622Z,97446.59
2023-02-19T19:15:56.520Z,97438.44
2023-02-19T19:18:24.089Z,97440.47
2023-02-19T19:20:51.114Z,97440.09
2023-02-19T19:23:17.700Z,97436.97
2023-02-19T19:25:44.414Z,97440.88
2023-02-19T19:28:10.894Z,97439.22
2023-02-19T19:30:37.858Z,97450.06
2023-02-19T19:33:04.487Z,97453.88
2023-02-19T19:35:30.935Z,97463.69
2023-02-19T19:37:57.472Z,97469.03
2023-02-19T19:40:24.407Z,97465.41
2023-02-19T19:42:52.222Z,97474.81
2023-02-19T19:45:18.932Z,97475.13
2023-02-19T19:47:45.427Z,97466.50
2023-02-19T19:50:13.182Z,97473.69
2023-02-19T19:52:39.801Z,97476.22
2023-02-19T19:55:07.273Z,97476.81
2023-02-19T19:57:33.768Z,97476.22
2023-02-19T20:00:00.715Z,97482.47
2023-02-19T20:02:27.234Z,97482.53
2023-02-19T20:04:54.258Z,97483.47
2023-02-19T20:07:20.806Z,97500.19
2023-02-19T20:09:50.273Z,97498.31
2023-02-19T20:12:17.927Z,97501.72
2023-02-19T20:14:46.048Z,97493.75
2023-02-19T20:17:12.872Z,97497.13
2023-02-19T20:19:39.328Z,97493.38
2023-02-19T20:22:05.735Z,97496.94
2023-02-19T20:24:32.296Z,97493.75
2023-02-19T20:27:01.727Z,97487.25
2023-02-19T20:29:33.474Z,97485.50
2023-02-19T20:32:02.339Z,97484.69
2023-02-19T20:34:29.811Z,97481.56
2023-02-19T20:36:56.305Z,97482.50
2023-02-19T20:39:28.605Z,97484.72
2023-02-19T20:41:56.826Z,97487.81
2023-02-19T20:44:24.133Z,97491.31
2023-02-19T20:46:51.906Z,97491.03
2023-02-19T20:49:20.414Z,97491.53
2023-02-19T20:52:07.493Z,97502.75
2023-02-19T20:54:35.190Z,97504.56
2023-02-19T20:57:04.217Z,97504.50
2023-02-19T20:59:35.232Z,97510.66
2023-02-19T21:02:07.997Z,97507.41
2023-02-19T21:04:37.465Z,97498.25
2023-02-19T21:07:03.950Z,97503.53
2023-02-19T21:09:31.067Z,97510.97
2023-02-19T21:11:58.513Z,97523.59
2023-02-19T21:14:26.605Z,97521.97
2023-02-19T21:16:54.031Z,97527.22
2023-02-19T21:19:21.678Z,97523.06
2023-02-19T21:21:48.139Z,97525.19
2023-02-19T21:24:16.049Z,97524.66
2023-02-19T21:26:43.435Z,97531.88
2023-02-19T21:29:14.245Z,97541.28
2023-02-19T21:31:46.789Z,97552.56
2023-02-19T21:34:15.658Z,97551.50
2023-02-19T21:36:42.667Z,97544.81
2023-02-19T21:39:11.919Z,97548.28
2023-02-19T21:41:38.419Z,97548.72
2023-02-19T21:44:04.986Z,97547.84
2023-02-19T21:46:32.994Z,97555.06
2023-02-19T21:49:00.200Z,97558.44
2023-02-19T21:51:32.685Z,97556.06
2023-02-19T21:53:59.767Z,97554.81
2023-02-19T21:56:28.887Z,97555.72
2023-02-19T21:58:55.546Z,97565.38
2023-02-19T22:01:27.346Z,97564.84
2023-02-19T22:03:53.958Z,97561.31
2023-02-19T22:06:26.496Z,97560.63
2023-02-19T22:08:58.008Z,97562.78
2023-02-19T22:11:25.563Z,97574.38
2023-02-19T22:13:52.392Z,97568.22
2023-02-19T22:16:19.415Z,97568.22
2023-02-19T22:18:55.093Z,97571.03
2023-02-19T22:21:24.241Z,97567.84
2023-02-19T22:23:52.157Z,97565.28
2023-02-19T22:26:31.693Z,97567.38
2023-02-19T22:28:59.506Z,97552.31
2023-02-19T22:31:28.054Z,97556.97
2023-02-19T22:33:56.560Z,97548.03
2023-02-19T22:36:25.291Z,97550.09
2023-02-19T22:38:52.266Z,97546.94
2023-02-19T22:41:19.331Z,97553.06
2023-02-19T22:43:46.252Z,97556.97
2023-02-19T22:46:21.729Z,97555.44
2023-02-19T22:48:48.622Z,97548.81
2023-02-19T22:51:18.488Z,97555.25
2023-02-19T22:53:49.719Z,97556.16
2023-02-19T22:56:18.029Z,97558.19
2023-02-19T22:58:44.775Z,97563.34
2023-02-19T23:01:12.939Z,97561.84
2023-02-19T23:03:52.484Z,97561.13
2023-02-19T23:06:32.384Z,97558.31
2023-02-19T23:09:06.208Z,97553.53
2023-02-19T23:11:35.452Z,97555.63
2023-02-19T23:14:02.232Z,97555.78
2023-02-19T23:16:29.402Z,97550.09
2023-02-19T23:18:55.856Z,97555.19
2023-02-19T23:21:23.874Z,97560.19
2023-02-19T23:23:50.982Z,97558.28
2023-02-19T23:26:18.061Z,97562.75
2023-02-19T23:28:45.422Z,97570.63
2023-02-19T23:31:12.769Z,97569.50
2023-02-19T23:33:39.661Z,97570.66
2023-02-19T23:36:07.214Z,97576.06
2023-02-19T23:38:33.852Z,97568.41
2023-02-19T23:41:00.717Z,97564.66
2023-02-19T23:43:27.400Z,97568.81
2023-02-19T23:45:54.329Z,97568.03
2023-02-19T23:48:20.773Z,97557.75
2023-02-19T23:50:47.145Z,97556.75
2023-02-19T23:53:13.590Z,97556.84
2023-02-19T23:55:40.054Z,97557.81
2023-02-19T23:58:06.490Z,97555.75
